Time;durP1;ratioP1;P1;durP2;ratioP2;P2;SDS_P1;SDS_P2;PMS_P1;PMS_P2;Temp;Humidity;BMP_temperature;BMP_pressure;BME280_temperature;BME280_humidity;BME280_pressure;Samples;Min_cycle;Max_cycle;Signal;HPM_P1;HPM_P2
2022/01/04 00:00:54;;;;;;;4.13;2.83;;;7.80;28.90;;;;;;5115939;28;20208;-60
2022/01/04 00:03:22;;;;;;;5.90;2.97;;;7.80;29.10;;;;;;5115761;28;20232;-61
2022/01/04 00:05:48;;;;;;;5.07;2.50;;;7.80;29.90;;;;;;5115721;28;20767;-60
2022/01/04 00:08:15;;;;;;;6.10;2.70;;;7.70;29.40;;;;;;5115625;28;20754;-60
2022/01/04 00:10:42;;;;;;;4.50;2.63;;;7.70;29.90;;;;;;5115829;28;20673;-60
2022/01/04 00:13:23;;;;;;;5.63;2.77;;;7.70;29.00;;;;;;5115661;28;20324;-61
2022/01/04 00:15:50;;;;;;;3.90;2.50;;;7.70;29.30;;;;;;5115591;28;20200;-61
2022/01/04 00:18:18;;;;;;;4.27;2.43;;;7.60;26.60;;;;;;5115714;28;20211;-60
2022/01/04 00:20:45;;;;;;;9.40;2.67;;;7.60;27.10;;;;;;5115246;28;20250;-59
2022/01/04 00:23:11;;;;;;;6.03;2.70;;;7.60;27.10;;;;;;5115646;28;20209;-60
2022/01/04 00:25:38;;;;;;;4.67;2.30;;;7.50;25.10;;;;;;5115201;28;20229;-60
2022/01/04 00:28:07;;;;;;;5.63;2.40;;;7.50;26.10;;;;;;5115655;28;20561;-61
2022/01/04 00:30:35;;;;;;;4.23;2.20;;;7.50;27.30;;;;;;5115296;28;20227;-61
2022/01/04 00:33:02;;;;;;;3.97;2.30;;;7.40;25.60;;;;;;5115357;27;20211;-60
2022/01/04 00:35:29;;;;;;;3.53;2.43;;;7.40;24.40;;;;;;5115464;28;20211;-60
2022/01/04 00:37:57;;;;;;;4.27;2.60;;;7.40;26.00;;;;;;5115504;28;20212;-60
2022/01/04 00:40:24;;;;;;;3.10;2.50;;;7.30;26.60;;;;;;5115145;28;20223;-60
2022/01/04 00:42:50;;;;;;;5.17;2.90;;;7.30;28.60;;;;;;5115270;28;20267;-62
2022/01/04 00:45:17;;;;;;;5.20;3.10;;;7.30;29.70;;;;;;5114644;27;20750;-61
2022/01/04 00:49:09;;;;;;;7.37;3.60;;;7.20;31.60;;;;;;5115149;28;20673;-61
2022/01/04 00:50:33;;;;;;;5.13;3.10;;;7.20;34.80;;;;;;5114663;28;20230;-60
2022/01/04 00:53:00;;;;;;;6.77;3.87;;;7.20;38.00;;;;;;5114872;28;20653;-61
2022/01/04 00:55:28;;;;;;;9.93;3.70;;;7.20;41.50;;;;;;5114586;28;20665;-61
2022/01/04 00:57:55;;;;;;;5.83;3.87;;;7.20;42.50;;;;;;5114553;28;20211;-62
2022/01/04 01:00:21;;;;;;;9.03;4.27;;;7.20;44.60;;;;;;5115282;28;20219;-60
2022/01/04 01:02:49;;;;;;;5.13;3.50;;;7.20;44.70;;;;;;5114555;28;20806;-60
2022/01/04 01:05:17;;;;;;;7.97;4.30;;;7.20;45.60;;;;;;5114639;28;20231;-60
2022/01/04 01:07:44;;;;;;;8.73;4.60;;;7.20;46.40;;;;;;5114303;28;20211;-61
2022/01/04 01:10:27;;;;;;;6.67;4.00;;;7.20;48.30;;;;;;5114540;28;20223;-61
2022/01/04 01:12:54;;;;;;;7.23;4.40;;;7.10;48.40;;;;;;5114788;27;20288;-61
2022/01/04 01:15:21;;;;;;;5.93;4.40;;;7.10;49.90;;;;;;5114474;28;20241;-61
2022/01/04 01:17:49;;;;;;;6.57;4.23;;;7.10;50.70;;;;;;5114267;28;20203;-60
2022/01/04 01:20:17;;;;;;;5.77;3.70;;;7.10;52.00;;;;;;5114278;28;20713;-61
2022/01/04 01:22:44;;;;;;;6.77;4.50;;;7.10;52.50;;;;;;5114021;28;20214;-61
2022/01/04 01:25:12;;;;;;;8.27;4.47;;;7.10;53.40;;;;;;5114323;28;20227;-61
2022/01/04 01:27:39;;;;;;;7.80;4.40;;;7.10;54.10;;;;;;5114075;28;20227;-60
2022/01/04 01:30:07;;;;;;;8.47;3.90;;;7.00;55.00;;;;;;5114553;28;20227;-60
2022/01/04 01:32:34;;;;;;;6.30;4.30;;;7.00;56.40;;;;;;5113994;28;20215;-60
2022/01/04 01:35:02;;;;;;;7.37;4.03;;;7.00;57.20;;;;;;5114049;28;20200;-61
2022/01/04 01:37:28;;;;;;;7.50;3.90;;;7.00;58.80;;;;;;5113704;28;20820;-62
2022/01/04 01:39:55;;;;;;;9.10;3.80;;;7.00;59.80;;;;;;5113870;28;20255;-61
2022/01/04 01:42:23;;;;;;;7.30;3.40;;;7.00;60.20;;;;;;5113466;28;20203;-62
2022/01/04 01:44:51;;;;;;;7.30;4.17;;;6.90;59.00;;;;;;5113590;28;20326;-62
2022/01/04 01:47:17;;;;;;;7.60;4.00;;;6.90;59.40;;;;;;5113714;28;20261;-62
2022/01/04 01:49:44;;;;;;;6.77;3.83;;;6.90;59.80;;;;;;5113325;28;20709;-61
2022/01/04 01:52:12;;;;;;;9.23;4.10;;;6.90;61.10;;;;;;5113824;28;20252;-62
2022/01/04 01:54:39;;;;;;;6.60;3.73;;;6.90;61.40;;;;;;5113689;28;20208;-61
2022/01/04 01:57:06;;;;;;;6.50;4.30;;;6.90;61.20;;;;;;5113598;28;20625;-61
2022/01/04 01:59:33;;;;;;;9.63;4.93;;;6.90;61.40;;;;;;5113584;28;20281;-59
2022/01/04 02:01:59;;;;;;;9.83;4.23;;;6.90;62.60;;;;;;5113313;28;20204;-60
2022/01/04 02:04:26;;;;;;;8.20;4.57;;;6.90;62.50;;;;;;5113269;28;20272;-60
2022/01/04 02:06:53;;;;;;;6.27;4.47;;;6.90;63.50;;;;;;5113305;28;20207;-59
2022/01/04 02:09:22;;;;;;;7.57;4.83;;;6.90;63.70;;;;;;5113511;28;20228;-59
2022/01/04 02:11:49;;;;;;;8.30;4.83;;;6.80;61.20;;;;;;5113488;27;20302;-61
2022/01/04 02:14:18;;;;;;;6.87;5.13;;;6.80;60.60;;;;;;5113697;28;20207;-60
2022/01/04 02:16:44;;;;;;;10.13;4.80;;;6.80;61.50;;;;;;5113044;28;20218;-61
2022/01/04 02:19:11;;;;;;;7.33;4.27;;;6.70;60.40;;;;;;5113224;28;20228;-62
2022/01/04 02:21:39;;;;;;;8.87;4.37;;;6.70;60.90;;;;;;5114113;28;20677;-62
2022/01/04 02:24:06;;;;;;;6.80;4.70;;;6.80;62.20;;;;;;5117775;28;20210;-62
2022/01/04 02:26:33;;;;;;;8.03;4.50;;;6.80;63.10;;;;;;5113688;27;20203;-62
2022/01/04 02:29:01;;;;;;;6.37;3.93;;;6.70;62.30;;;;;;5113849;28;20305;-60
2022/01/04 02:31:28;;;;;;;7.07;4.30;;;6.80;62.00;;;;;;5113557;27;20252;-59
2022/01/04 02:33:55;;;;;;;6.20;3.93;;;6.70;61.50;;;;;;5113533;28;20215;-62
2022/01/04 02:36:22;;;;;;;7.30;4.53;;;6.70;60.50;;;;;;5113523;28;20233;-62
2022/01/04 02:38:51;;;;;;;8.53;5.30;;;6.70;61.10;;;;;;5113567;28;20231;-60
2022/01/04 02:41:18;;;;;;;8.17;4.60;;;6.70;59.70;;;;;;5113859;28;20289;-59
2022/01/04 02:43:45;;;;;;;8.13;5.27;;;6.70;59.20;;;;;;5113278;28;20279;-62
2022/01/04 02:46:12;;;;;;;11.27;5.10;;;6.70;58.80;;;;;;5113124;28;20230;-62
2022/01/04 02:48:42;;;;;;;10.80;6.17;;;6.60;59.00;;;;;;5114102;28;20223;-62
2022/01/04 02:51:09;;;;;;;10.03;6.17;;;6.70;60.30;;;;;;5113513;28;20294;-57
2022/01/04 02:53:35;;;;;;;8.97;5.97;;;6.70;61.60;;;;;;5112570;28;20664;-62
2022/01/04 02:56:04;;;;;;;8.83;5.97;;;6.80;62.80;;;;;;5112065;28;20228;-61
2022/01/04 02:58:30;;;;;;;8.50;6.00;;;6.70;60.70;;;;;;5112396;28;20228;-63
2022/01/04 03:00:57;;;;;;;9.77;6.00;;;6.70;59.90;;;;;;5112548;28;20207;-61
2022/01/04 03:03:24;;;;;;;9.30;5.87;;;6.70;60.40;;;;;;5112670;27;20253;-62
2022/01/04 03:05:51;;;;;;;10.57;6.07;;;6.70;61.10;;;;;;5112171;28;20227;-62
2022/01/04 03:08:17;;;;;;;8.53;5.57;;;6.70;61.60;;;;;;5112444;28;20207;-63
2022/01/04 03:10:44;;;;;;;8.70;5.90;;;6.70;61.70;;;;;;5112506;28;20204;-62
2022/01/04 03:13:13;;;;;;;9.57;6.17;;;6.70;61.90;;;;;;5112116;28;20204;-61
2022/01/04 03:15:40;;;;;;;9.60;5.90;;;6.70;62.80;;;;;;5112563;28;20211;-59
2022/01/04 03:18:07;;;;;;;8.27;5.63;;;6.70;64.40;;;;;;5112361;28;20210;-59
2022/01/04 03:20:33;;;;;;;9.67;5.43;;;6.70;63.70;;;;;;5113229;28;20214;-61
2022/01/04 03:23:00;;;;;;;8.13;5.57;;;6.70;64.00;;;;;;5112033;28;20256;-62
2022/01/04 03:25:27;;;;;;;9.80;6.07;;;6.70;65.00;;;;;;5112384;28;20273;-63
2022/01/04 03:27:54;;;;;;;10.67;5.47;;;6.70;65.10;;;;;;5112297;28;20215;-62
2022/01/04 03:30:22;;;;;;;7.93;5.47;;;6.70;66.20;;;;;;5112170;28;20231;-62
2022/01/04 03:32:49;;;;;;;7.27;5.37;;;6.70;67.70;;;;;;5112473;28;20203;-60
2022/01/04 03:35:17;;;;;;;8.27;5.57;;;6.70;67.80;;;;;;5112187;28;20207;-61
2022/01/04 03:37:45;;;;;;;11.80;5.40;;;6.70;68.30;;;;;;5111990;28;20203;-62
2022/01/04 03:40:12;;;;;;;8.97;5.53;;;6.60;68.60;;;;;;5112073;28;20599;-62
2022/01/04 03:42:39;;;;;;;9.63;4.93;;;6.70;70.40;;;;;;5112253;28;20200;-60
2022/01/04 03:45:07;;;;;;;9.50;5.57;;;6.70;72.30;;;;;;5112197;28;20247;-61
2022/01/04 03:47:35;;;;;;;7.97;5.00;;;6.70;73.00;;;;;;5111906;28;20208;-62
2022/01/04 03:50:02;;;;;;;9.67;5.50;;;6.70;73.10;;;;;;5112088;28;20276;-62
2022/01/04 03:52:29;;;;;;;8.47;5.20;;;6.60;72.70;;;;;;5111887;28;20253;-58
2022/01/04 03:54:55;;;;;;;8.83;5.50;;;6.70;73.80;;;;;;5112082;28;20204;-61
2022/01/04 03:57:22;;;;;;;8.23;5.23;;;6.70;74.30;;;;;;5112794;28;20204;-62
2022/01/04 03:59:49;;;;;;;9.17;5.80;;;6.60;73.70;;;;;;5111944;28;20264;-62
2022/01/04 04:02:16;;;;;;;7.27;5.10;;;6.60;74.10;;;;;;5112128;28;20207;-61
2022/01/04 04:04:43;;;;;;;8.17;4.90;;;6.70;75.50;;;;;;5111701;28;20207;-62
2022/01/04 04:07:11;;;;;;;11.50;5.40;;;6.60;75.20;;;;;;5114277;28;20281;-61
2022/01/04 04:09:37;;;;;;;8.80;5.83;;;6.70;75.80;;;;;;5115875;28;20272;-60
2022/01/04 04:12:05;;;;;;;9.70;5.20;;;6.70;76.60;;;;;;5115796;28;20200;-62
2022/01/04 04:14:32;;;;;;;7.40;5.03;;;6.70;77.00;;;;;;5115934;28;20208;-62
2022/01/04 04:16:59;;;;;;;8.93;5.47;;;6.70;76.50;;;;;;5115490;28;20202;-61
2022/01/04 04:19:25;;;;;;;7.23;5.30;;;6.80;77.70;;;;;;5115113;28;20717;-62
2022/01/04 04:21:53;;;;;;;7.17;4.80;;;6.70;76.80;;;;;;5115080;28;20678;-61
2022/01/04 04:24:20;;;;;;;8.27;4.80;;;6.70;74.90;;;;;;5115636;27;20207;-61
2022/01/04 04:26:47;;;;;;;9.63;5.50;;;6.60;74.40;;;;;;5115368;28;20253;-59
2022/01/04 04:29:13;;;;;;;7.70;5.03;;;6.60;75.00;;;;;;5115201;28;20280;-62
2022/01/04 04:31:40;;;;;;;10.23;5.77;;;6.60;75.90;;;;;;5115232;28;20696;-60
2022/01/04 04:34:07;;;;;;;7.87;5.07;;;6.60;75.80;;;;;;5115027;28;20268;-61
2022/01/04 04:36:33;;;;;;;8.10;5.43;;;6.60;77.60;;;;;;5114972;28;20280;-60
2022/01/04 04:39:01;;;;;;;9.37;5.80;;;6.60;80.50;;;;;;5115282;28;20233;-61
2022/01/04 04:41:28;;;;;;;11.77;6.07;;;6.50;82.90;;;;;;5115226;28;20207;-58
2022/01/04 04:43:54;;;;;;;8.23;5.50;;;6.50;84.60;;;;;;5115205;28;20241;-60
2022/01/04 04:46:21;;;;;;;11.10;5.60;;;6.50;87.10;;;;;;5114605;28;20227;-61
2022/01/04 04:48:48;;;;;;;10.37;5.93;;;6.50;90.40;;;;;;5114909;28;20228;-59
2022/01/04 04:51:15;;;;;;;14.53;6.47;;;6.60;91.60;;;;;;5115067;28;20654;-61
2022/01/04 04:53:42;;;;;;;10.47;6.00;;;6.60;92.10;;;;;;5114868;27;20211;-60
2022/01/04 04:56:10;;;;;;;9.40;5.40;;;6.60;92.60;;;;;;5115058;28;20203;-61
2022/01/04 04:58:37;;;;;;;8.60;5.47;;;6.60;93.20;;;;;;5114848;28;20228;-61
2022/01/04 05:01:04;;;;;;;9.87;5.83;;;6.60;94.00;;;;;;5115100;28;20244;-61
2022/01/04 05:03:30;;;;;;;10.57;5.77;;;6.60;94.40;;;;;;5114541;28;20208;-61
2022/01/04 05:05:57;;;;;;;9.67;6.10;;;6.60;94.90;;;;;;5114438;28;20223;-60
2022/01/04 05:08:24;;;;;;;10.30;6.03;;;6.60;95.80;;;;;;5114651;28;20700;-61
2022/01/04 05:10:51;;;;;;;10.27;5.40;;;6.60;95.60;;;;;;5116016;27;20211;-62
2022/01/04 05:13:18;;;;;;;11.50;5.80;;;6.60;95.60;;;;;;5114699;28;20203;-62
2022/01/04 05:15:45;;;;;;;13.23;5.77;;;6.60;95.40;;;;;;5112401;28;20200;-61
2022/01/04 05:18:12;;;;;;;10.17;5.67;;;6.60;95.10;;;;;;5113050;28;20203;-62
2022/01/04 05:20:39;;;;;;;9.47;5.57;;;6.60;95.10;;;;;;5114862;28;20674;-61
2022/01/04 05:23:05;;;;;;;12.00;6.17;;;6.60;95.40;;;;;;5114656;28;20701;-62
2022/01/04 05:25:32;;;;;;;8.40;5.13;;;6.60;94.80;;;;;;5114235;28;20227;-61
2022/01/04 05:27:59;;;;;;;10.53;6.07;;;6.60;94.70;;;;;;5114064;28;20203;-62
2022/01/04 05:30:27;;;;;;;10.30;6.47;;;6.50;94.40;;;;;;5114359;28;20269;-62
2022/01/04 05:32:54;;;;;;;10.63;5.47;;;6.50;94.40;;;;;;5114003;27;20212;-63
2022/01/04 05:35:20;;;;;;;12.07;6.10;;;6.50;94.60;;;;;;5114872;28;20203;-62
2022/01/04 05:37:47;;;;;;;17.43;10.00;;;6.60;95.00;;;;;;5114378;28;20215;-62
2022/01/04 05:40:14;;;;;;;13.07;5.57;;;6.60;95.10;;;;;;5114225;28;20255;-62
2022/01/04 05:42:41;;;;;;;11.97;5.30;;;6.60;94.70;;;;;;5115609;28;20616;-62
2022/01/04 05:45:09;;;;;;;14.77;5.73;;;6.60;94.30;;;;;;5114257;28;20217;-62
2022/01/04 05:47:37;;;;;;;10.17;5.57;;;6.60;93.90;;;;;;5114261;28;20227;-61
2022/01/04 05:50:05;;;;;;;10.37;5.57;;;6.60;93.10;;;;;;5114056;28;20228;-61
2022/01/04 05:52:32;;;;;;;11.70;5.93;;;6.60;92.40;;;;;;5113609;27;20298;-62
2022/01/04 05:54:59;;;;;;;13.20;6.17;;;6.60;92.60;;;;;;5113630;27;20828;-62
2022/01/04 05:57:26;;;;;;;10.87;5.60;;;6.60;91.80;;;;;;5113364;28;20685;-61
2022/01/04 05:59:52;;;;;;;10.57;5.87;;;6.60;91.90;;;;;;5113588;28;20227;-62
2022/01/04 06:02:19;;;;;;;9.53;5.80;;;6.60;91.90;;;;;;5113637;28;20215;-62
2022/01/04 06:04:47;;;;;;;10.27;6.30;;;6.60;91.30;;;;;;5113764;28;20203;-62
2022/01/04 06:07:14;;;;;;;13.00;5.97;;;6.60;90.80;;;;;;5115027;28;20246;-61
2022/01/04 06:09:44;;;;;;;11.07;6.53;;;6.60;90.00;;;;;;5114290;28;20258;-61
2022/01/04 06:15:00;;;;;;;10.70;5.73;;;6.60;87.70;;;;;;5113627;28;20210;-62
2022/01/04 06:17:29;;;;;;;12.00;6.40;;;6.60;86.10;;;;;;5113322;28;20206;-60
2022/01/04 06:19:58;;;;;;;12.97;6.53;;;6.60;83.60;;;;;;5113842;28;20292;-61
2022/01/04 06:22:25;;;;;;;10.57;6.27;;;6.60;82.90;;;;;;5113600;28;20204;-61
2022/01/04 06:24:52;;;;;;;11.60;6.30;;;6.60;80.80;;;;;;5113088;28;20211;-61
2022/01/04 06:27:19;;;;;;;13.33;6.90;;;6.60;80.30;;;;;;5112734;28;20276;-61
2022/01/04 06:29:46;;;;;;;12.73;6.33;;;6.50;78.50;;;;;;5113008;28;20276;-61
2022/01/04 06:32:13;;;;;;;17.43;6.80;;;6.50;79.60;;;;;;5112836;27;20210;-62
2022/01/04 06:34:41;;;;;;;12.83;6.57;;;6.50;80.30;;;;;;5112868;28;20302;-63
2022/01/04 06:37:10;;;;;;;15.33;6.27;;;6.60;81.30;;;;;;5112610;28;20203;-61
2022/01/04 06:39:37;;;;;;;12.37;7.33;;;6.60;80.90;;;;;;5112880;28;20219;-61
2022/01/04 06:42:04;;;;;;;12.53;6.77;;;6.50;79.70;;;;;;5112064;28;20207;-62
2022/01/04 06:44:31;;;;;;;15.63;7.60;;;6.50;79.60;;;;;;5112808;28;20227;-63
2022/01/04 06:46:58;;;;;;;12.83;7.60;;;6.50;78.50;;;;;;5112501;28;20351;-63
2022/01/04 06:49:25;;;;;;;14.37;7.23;;;6.50;79.50;;;;;;5112826;28;20235;-63
2022/01/04 06:51:52;;;;;;;18.07;9.00;;;6.50;80.80;;;;;;5112273;28;20222;-64
2022/01/04 06:54:21;;;;;;;15.23;8.07;;;6.40;80.40;;;;;;5112888;28;20222;-63
2022/01/04 06:56:49;;;;;;;16.77;8.33;;;6.50;81.70;;;;;;5112444;28;20268;-63
2022/01/04 06:59:17;;;;;;;15.40;7.93;;;6.50;82.30;;;;;;5112662;28;20242;-63
2022/01/04 07:01:44;;;;;;;16.47;8.63;;;6.50;82.90;;;;;;5104300;28;20204;-62
2022/01/04 07:04:11;;;;;;;20.17;8.90;;;6.60;83.40;;;;;;5099209;28;20579;-62
2022/01/04 07:06:38;;;;;;;16.50;8.17;;;6.60;82.60;;;;;;5111733;28;20227;-62
2022/01/04 07:09:06;;;;;;;18.43;7.53;;;6.50;80.20;;;;;;5111941;28;20231;-62
2022/01/04 07:11:35;;;;;;;21.53;9.33;;;6.50;80.10;;;;;;5111883;28;20211;-62
2022/01/04 07:14:02;;;;;;;17.70;8.60;;;6.50;80.10;;;;;;5111866;28;20214;-62
2022/01/04 07:16:28;;;;;;;16.93;8.03;;;6.50;79.60;;;;;;5111640;28;20206;-62
2022/01/04 07:18:55;;;;;;;16.10;8.50;;;6.50;78.90;;;;;;5111740;28;20227;-63
2022/01/04 07:21:23;;;;;;;16.80;8.77;;;6.50;78.50;;;;;;5111679;28;20742;-64
2022/01/04 07:23:51;;;;;;;14.73;8.20;;;6.60;79.00;;;;;;5112199;28;20623;-64
2022/01/04 07:26:18;;;;;;;17.40;8.60;;;6.60;77.70;;;;;;5112118;28;20235;-63
2022/01/04 07:28:48;;;;;;;17.37;8.63;;;6.60;76.90;;;;;;5111587;28;20899;-62
2022/01/04 07:31:16;;;;;;;15.00;8.37;;;6.70;77.50;;;;;;5111858;28;20245;-64
2022/01/04 07:33:44;;;;;;;18.90;9.73;;;6.70;77.00;;;;;;5111508;28;20704;-65
2022/01/04 07:36:11;;;;;;;17.93;9.07;;;6.70;75.80;;;;;;5111841;28;20202;-64
2022/01/04 07:38:38;;;;;;;16.70;9.17;;;6.60;71.90;;;;;;5111756;28;20227;-64
2022/01/04 07:41:10;;;;;;;17.20;8.73;;;6.70;72.00;;;;;;5112616;28;20210;-64
2022/01/04 07:43:36;;;;;;;17.57;8.90;;;6.60;69.80;;;;;;5116020;28;20555;-64
2022/01/04 07:46:04;;;;;;;20.17;9.73;;;6.60;68.70;;;;;;5115397;28;20218;-63
2022/01/04 07:48:31;;;;;;;19.73;9.53;;;6.50;66.50;;;;;;5115982;27;20234;-64
2022/01/04 07:50:59;;;;;;;18.17;9.40;;;6.50;67.40;;;;;;5116764;28;20204;-63
2022/01/04 07:53:26;;;;;;;16.77;9.10;;;6.50;68.90;;;;;;5115774;28;20286;-64
2022/01/04 07:55:53;;;;;;;18.43;8.97;;;6.50;69.80;;;;;;5116589;27;20216;-64
2022/01/04 07:58:19;;;;;;;20.50;9.70;;;6.50;69.40;;;;;;5115507;28;20199;-64
2022/01/04 08:00:46;;;;;;;20.80;9.50;;;6.50;70.10;;;;;;5115725;28;20226;-64
2022/01/04 08:03:14;;;;;;;21.20;9.93;;;6.50;71.50;;;;;;5115579;28;20215;-62
2022/01/04 08:05:42;;;;;;;21.73;10.13;;;6.50;72.30;;;;;;5115294;28;20200;-62
2022/01/04 08:08:09;;;;;;;21.53;10.47;;;6.60;74.20;;;;;;5115120;28;20231;-61
2022/01/04 08:10:36;;;;;;;22.80;10.60;;;6.60;74.30;;;;;;5115322;28;20250;-62
2022/01/04 08:13:03;;;;;;;19.87;9.67;;;6.60;74.20;;;;;;5115045;27;20207;-61
2022/01/04 08:15:30;;;;;;;22.33;10.13;;;6.60;73.90;;;;;;5115457;28;20211;-62
2022/01/04 08:17:57;;;;;;;21.00;10.50;;;6.60;74.60;;;;;;5114786;28;20199;-63
2022/01/04 08:20:25;;;;;;;23.80;10.67;;;6.60;75.50;;;;;;5114949;28;20267;-62
2022/01/04 08:22:52;;;;;;;24.10;10.67;;;6.60;74.30;;;;;;5114828;28;20212;-63
2022/01/04 08:25:19;;;;;;;21.57;10.13;;;6.60;75.30;;;;;;5114844;28;20215;-63
2022/01/04 08:27:45;;;;;;;22.47;10.97;;;6.60;74.00;;;;;;5114707;27;20227;-63
2022/01/04 08:30:13;;;;;;;22.50;10.13;;;6.60;74.20;;;;;;5114899;28;20250;-63
2022/01/04 08:32:42;;;;;;;27.10;9.77;;;6.60;73.80;;;;;;5114622;28;20669;-70
2022/01/04 08:35:09;;;;;;;20.73;9.90;;;6.60;76.10;;;;;;5114462;28;20603;-69
2022/01/04 08:37:46;;;;;;;24.23;11.50;;;6.70;80.50;;;;;;5114751;28;20231;-70
2022/01/04 08:40:46;;;;;;;25.13;10.77;;;6.80;83.90;;;;;;5114185;28;20231;-69
2022/01/04 08:46:35;;;;;;;26.57;11.73;;;6.90;86.80;;;;;;5082543;28;20896;-63
2022/01/04 08:49:02;;;;;;;26.57;10.90;;;6.90;83.40;;;;;;5114438;27;20258;-61
2022/01/04 08:51:29;;;;;;;22.53;10.80;;;7.00;80.40;;;;;;5115048;28;20229;-60
2022/01/04 08:53:57;;;;;;;26.67;12.20;;;6.90;70.20;;;;;;5113161;28;20207;-61
2022/01/04 08:56:23;;;;;;;26.57;11.63;;;6.80;57.40;;;;;;5114111;28;20203;-63
2022/01/04 08:58:50;;;;;;;28.33;11.60;;;6.70;51.60;;;;;;5114290;28;20223;-61
2022/01/04 09:01:17;;;;;;;26.67;11.87;;;6.70;50.60;;;;;;5114195;28;20211;-62
2022/01/04 09:03:43;;;;;;;23.70;10.53;;;6.60;51.80;;;;;;5114461;28;20215;-60
2022/01/04 09:06:11;;;;;;;26.47;11.60;;;6.60;56.00;;;;;;5114082;28;20726;-60
2022/01/04 09:08:38;;;;;;;31.20;12.07;;;6.60;59.60;;;;;;5114106;28;20223;-60
2022/01/04 09:11:05;;;;;;;25.63;12.10;;;6.60;63.80;;;;;;5114231;28;20208;-57
2022/01/04 09:13:36;;;;;;;28.00;12.57;;;6.60;66.90;;;;;;5113652;28;20204;-60
2022/01/04 09:18:54;;;;;;;20.67;10.83;;;6.60;70.60;;;;;;5074405;27;20447;-59
2022/01/04 09:21:24;;;;;;;27.43;11.13;;;6.60;71.00;;;;;;5113683;28;20578;-58
2022/01/04 09:23:51;;;;;;;20.27;9.77;;;6.60;71.40;;;;;;5113720;28;20235;-61
2022/01/04 09:26:19;;;;;;;20.73;9.40;;;6.50;73.60;;;;;;5114009;28;20240;-56
2022/01/04 09:28:46;;;;;;;21.43;10.53;;;6.50;76.60;;;;;;5113947;28;20251;-61
2022/01/04 09:31:14;;;;;;;19.73;9.20;;;6.50;80.30;;;;;;5114389;28;20271;-59
2022/01/04 09:33:41;;;;;;;23.63;10.37;;;6.50;82.50;;;;;;5113806;28;20253;-62
2022/01/04 09:36:09;;;;;;;20.60;8.93;;;6.50;85.00;;;;;;5113676;28;20280;-61
2022/01/04 09:38:36;;;;;;;17.83;9.90;;;6.50;88.20;;;;;;5113591;28;20272;-60
2022/01/04 09:41:02;;;;;;;18.10;9.43;;;6.60;89.90;;;;;;5114403;28;20214;-62
2022/01/04 09:43:31;;;;;;;20.37;9.70;;;6.60;90.30;;;;;;5114103;28;20204;-63
2022/01/04 09:46:00;;;;;;;19.23;9.63;;;6.60;90.50;;;;;;5115027;28;20208;-62
2022/01/04 09:48:27;;;;;;;17.83;9.53;;;6.60;90.70;;;;;;5115143;28;20232;-62
2022/01/04 09:50:55;;;;;;;19.93;9.93;;;6.60;90.90;;;;;;5113889;27;20234;-62
2022/01/04 09:53:22;;;;;;;17.03;9.87;;;6.60;90.70;;;;;;5113797;27;20204;-62
2022/01/04 09:55:50;;;;;;;19.90;10.00;;;6.60;90.40;;;;;;5114265;28;20203;-62
2022/01/04 09:58:18;;;;;;;19.27;10.50;;;6.60;90.50;;;;;;5113541;27;20199;-61
2022/01/04 10:00:48;;;;;;;16.40;9.40;;;6.60;91.10;;;;;;5113964;28;20669;-63
2022/01/04 10:03:17;;;;;;;15.30;9.37;;;6.60;90.90;;;;;;5113152;27;20207;-62
2022/01/04 10:05:45;;;;;;;19.07;9.50;;;6.60;90.60;;;;;;5113027;28;20204;-62
2022/01/04 10:08:13;;;;;;;17.23;9.57;;;6.60;90.90;;;;;;5113122;28;20222;-62
2022/01/04 10:10:41;;;;;;;18.03;9.50;;;6.70;91.50;;;;;;5113307;28;20588;-62
2022/01/04 10:13:11;;;;;;;17.43;10.00;;;6.70;91.60;;;;;;5112804;28;20669;-61
2022/01/04 10:15:40;;;;;;;18.87;9.83;;;6.80;91.30;;;;;;5112978;28;20705;-62
2022/01/04 10:18:24;;;;;;;20.57;11.03;;;6.80;90.30;;;;;;5112423;28;20199;-62
2022/01/04 10:21:09;;;;;;;18.03;9.60;;;6.90;90.10;;;;;;5092555;28;20666;-62
2022/01/04 10:23:45;;;;;;;15.10;8.37;;;6.90;89.00;;;;;;5102835;28;20234;-62
2022/01/04 10:26:11;;;;;;;17.17;9.90;;;6.90;85.90;;;;;;5112975;28;20238;-63
2022/01/04 10:28:40;;;;;;;21.33;9.97;;;7.00;82.90;;;;;;5112386;28;20231;-63
2022/01/04 10:31:09;;;;;;;15.47;9.13;;;7.00;80.60;;;;;;5112818;28;20260;-64
2022/01/04 10:33:37;;;;;;;11.37;6.97;;;7.00;76.10;;;;;;5112541;28;20204;-63
2022/01/04 10:36:11;;;;;;;12.30;7.53;;;7.00;70.20;;;;;;5112434;28;20211;-62
2022/01/04 10:38:39;;;;;;;13.97;7.40;;;6.90;54.20;;;;;;5112669;28;20280;-61
2022/01/04 10:41:08;;;;;;;14.87;7.87;;;6.90;44.90;;;;;;5112246;27;20248;-61
2022/01/04 10:43:39;;;;;;;13.73;7.60;;;6.90;39.20;;;;;;5112178;28;20207;-62
2022/01/04 10:46:06;;;;;;;14.67;8.33;;;6.90;41.60;;;;;;5112311;28;20276;-61
2022/01/04 10:48:36;;;;;;;16.37;7.83;;;6.90;42.80;;;;;;5112118;28;20309;-63
2022/01/04 10:51:08;;;;;;;15.17;7.77;;;6.90;44.70;;;;;;5112188;28;20211;-62
2022/01/04 10:53:38;;;;;;;14.17;8.30;;;7.00;47.40;;;;;;5111482;28;20203;-61
2022/01/04 10:56:07;;;;;;;13.63;8.77;;;7.00;45.70;;;;;;5112253;28;20290;-62
2022/01/04 10:58:38;;;;;;;15.37;7.60;;;7.00;43.80;;;;;;5112242;28;20216;-73
2022/01/04 11:01:08;;;;;;;16.07;8.40;;;7.10;46.80;;;;;;5110752;28;20242;-69
2022/01/04 11:03:37;;;;;;;12.37;8.33;;;7.20;44.00;;;;;;5091302;28;20208;-71
2022/01/04 11:06:11;;;;;;;14.83;8.80;;;7.20;43.50;;;;;;5091166;28;20209;-69
2022/01/04 11:08:40;;;;;;;14.80;8.23;;;7.40;44.50;;;;;;5091345;28;20238;-69
2022/01/04 11:11:06;;;;;;;15.30;8.57;;;7.30;30.80;;;;;;5091789;28;20212;-65
2022/01/04 11:13:33;;;;;;;13.13;7.73;;;7.20;20.30;;;;;;5091168;28;20212;-62
2022/01/04 11:16:01;;;;;;;13.93;8.67;;;7.20;15.40;;;;;;5101633;28;20204;-62
2022/01/04 11:18:30;;;;;;;14.47;9.13;;;7.30;13.40;;;;;;5111548;28;20217;-61
2022/01/04 11:20:57;;;;;;;14.77;9.20;;;7.30;12.30;;;;;;5112019;28;20256;-62
2022/01/04 11:23:27;;;;;;;13.23;9.33;;;7.30;11.30;;;;;;5111728;28;20207;-62
2022/01/04 11:25:55;;;;;;;13.27;7.47;;;7.30;9.00;;;;;;5111637;28;20199;-61
2022/01/04 11:28:22;;;;;;;14.77;10.10;;;7.30;4.40;;;;;;5111770;28;20223;-62
2022/01/04 11:30:58;;;;;;;14.87;9.80;;;7.30;3.50;;;;;;5111950;28;20204;-62
2022/01/04 11:33:28;;;;;;;15.23;8.87;;;7.30;6.00;;;;;;5111704;28;20594;-62
2022/01/04 11:35:56;;;;;;;13.63;6.93;;;7.20;7.20;;;;;;5112176;28;20203;-62
2022/01/04 11:38:38;;;;;;;16.70;10.07;;;7.20;8.40;;;;;;5111598;28;20206;-62
2022/01/04 11:41:06;;;;;;;15.60;10.23;;;7.10;12.90;;;;;;5112019;28;20191;-62
2022/01/04 11:43:35;;;;;;;15.20;10.77;;;7.10;18.80;;;;;;5111040;28;20254;-62
2022/01/04 11:46:03;;;;;;;20.83;11.20;;;7.10;22.00;;;;;;5111683;28;20265;-62
2022/01/04 11:48:33;;;;;;;16.33;10.53;;;7.10;23.30;;;;;;5111654;28;20235;-62
2022/01/04 11:51:02;;;;;;;19.93;12.87;;;7.10;27.40;;;;;;5111493;28;20199;-61
2022/01/04 11:53:29;;;;;;;19.33;11.93;;;7.10;32.70;;;;;;5111305;28;20206;-62
2022/01/04 11:56:02;;;;;;;19.97;13.13;;;7.10;39.60;;;;;;5111293;28;20214;-61
2022/01/04 11:58:44;;;;;;;22.67;12.80;;;7.20;41.90;;;;;;5112018;28;20216;-62
2022/01/04 12:01:15;;;;;;;19.77;12.57;;;7.20;43.70;;;;;;5112095;28;20293;-61
2022/01/04 12:03:44;;;;;;;18.23;12.60;;;7.30;43.00;;;;;;5111586;28;20744;-63
2022/01/04 12:06:13;;;;;;;19.70;12.60;;;7.20;41.90;;;;;;5112265;28;20208;-61
2022/01/04 12:08:41;;;;;;;22.20;13.10;;;7.30;44.80;;;;;;5111872;28;20232;-64
2022/01/04 12:11:22;;;;;;;19.33;12.07;;;7.30;47.60;;;;;;5111905;28;20700;-63
2022/01/04 12:13:51;;;;;;;20.73;12.40;;;7.30;48.20;;;;;;5111708;28;20200;-63
2022/01/04 12:16:31;;;;;;;24.37;14.33;;;7.30;49.80;;;;;;5111142;28;20265;-62
2022/01/04 12:18:58;;;;;;;18.57;11.70;;;7.30;50.20;;;;;;5110920;28;20216;-62
2022/01/04 12:21:31;;;;;;;22.50;12.53;;;7.20;47.00;;;;;;5110903;28;20208;-63
2022/01/04 12:23:58;;;;;;;21.33;12.20;;;7.20;44.10;;;;;;5111358;28;20207;-62
2022/01/04 12:26:28;;;;;;;19.03;12.50;;;7.30;42.50;;;;;;5111119;28;20200;-62
2022/01/04 12:29:18;;;;;;;21.33;12.47;;;7.30;40.20;;;;;;5114951;28;20236;-62
2022/01/04 12:31:48;;;;;;;23.77;12.20;;;7.30;40.10;;;;;;5114754;28;20207;-58
2022/01/04 12:34:50;;;;;;;19.93;11.60;;;7.40;38.40;;;;;;5115209;28;20780;-62
2022/01/04 12:37:19;;;;;;;19.47;12.33;;;7.40;32.20;;;;;;5081463;28;20199;-63
2022/01/04 12:39:48;;;;;;;20.83;13.07;;;7.40;29.50;;;;;;5114562;28;20296;-63
2022/01/04 12:42:18;;;;;;;20.53;13.17;;;7.40;29.20;;;;;;5114607;28;20205;-63
2022/01/04 12:44:53;;;;;;;21.80;11.93;;;7.40;27.20;;;;;;5114792;28;20214;-64
2022/01/04 12:47:20;;;;;;;21.70;12.70;;;7.30;27.00;;;;;;5114963;28;20229;-62
2022/01/04 12:49:47;;;;;;;21.73;12.27;;;7.40;29.60;;;;;;5114646;28;20233;-62
2022/01/04 12:52:17;;;;;;;24.20;13.30;;;7.40;29.90;;;;;;5114098;28;20216;-62
2022/01/04 12:54:44;;;;;;;24.10;13.63;;;7.40;30.70;;;;;;5114663;28;20203;-62
2022/01/04 12:57:14;;;;;;;25.63;12.60;;;7.40;29.30;;;;;;5114664;27;20206;-61
2022/01/04 12:59:43;;;;;;;23.93;13.20;;;7.40;29.40;;;;;;5114462;28;20291;-62
2022/01/04 13:02:12;;;;;;;20.60;12.20;;;7.30;29.10;;;;;;5114225;28;20214;-64